sensor_id;sensor_type;location;lat;lon;timestamp;P1;durP1;ratioP1;P2;durP2;ratioP2
35839;SDS011;35514;50.504;30.500;2023-02-20T00:00:27;9.52;;;2.60;;
35839;SDS011;35514;50.504;30.500;2023-02-20T00:02:55;5.65;;;1.92;;
35839;SDS011;35514;50.504;30.500;2023-02-20T00:05:22;6.57;;;2.33;;
35839;SDS011;35514;50.504;30.500;2023-02-20T00:07:51;5.05;;;2.03;;
35839;SDS011;35514;50.504;30.500;2023-02-20T00:10:19;4.68;;;1.90;;
35839;SDS011;35514;50.504;30.500;2023-02-20T00:12:46;3.72;;;1.50;;
35839;SDS011;35514;50.504;30.500;2023-02-20T00:15:14;4.03;;;2.42;;
35839;SDS011;35514;50.504;30.500;2023-02-20T00:17:44;7.85;;;1.80;;
35839;SDS011;35514;50.504;30.500;2023-02-20T00:20:14;5.55;;;1.98;;
35839;SDS011;35514;50.504;30.500;2023-02-20T00:22:41;3.58;;;2.00;;
35839;SDS011;35514;50.504;30.500;2023-02-20T00:25:10;7.28;;;2.03;;
35839;SDS011;35514;50.504;30.500;2023-02-20T00:27:40;3.50;;;1.60;;
35839;SDS011;35514;50.504;30.500;2023-02-20T00:30:09;4.55;;;1.63;;
35839;SDS011;35514;50.504;30.500;2023-02-20T00:32:38;8.23;;;2.22;;
35839;SDS011;35514;50.504;30.500;2023-02-20T00:35:05;4.72;;;1.98;;
35839;SDS011;35514;50.504;30.500;2023-02-20T00:37:33;4.95;;;2.30;;
35839;SDS011;35514;50.504;30.500;2023-02-20T00:40:01;4.22;;;1.63;;
35839;SDS011;35514;50.504;30.500;2023-02-20T00:42:30;7.85;;;2.10;;
35839;SDS011;35514;50.504;30.500;2023-02-20T00:44:57;10.27;;;2.30;;
35839;SDS011;35514;50.504;30.500;2023-02-20T00:47:25;9.90;;;2.00;;
35839;SDS011;35514;50.504;30.500;2023-02-20T00:49:52;3.92;;;1.33;;
35839;SDS011;35514;50.504;30.500;2023-02-20T00:52:20;4.18;;;1.92;;
35839;SDS011;35514;50.504;30.500;2023-02-20T00:54:47;5.38;;;1.58;;
35839;SDS011;35514;50.504;30.500;2023-02-20T00:57:15;3.53;;;1.80;;
35839;SDS011;35514;50.504;30.500;2023-02-20T00:59:44;2.22;;;1.55;;
35839;SDS011;35514;50.504;30.500;2023-02-20T01:02:11;2.90;;;1.50;;
35839;SDS011;35514;50.504;30.500;2023-02-20T01:04:39;3.55;;;1.38;;
35839;SDS011;35514;50.504;30.500;2023-02-20T01:07:06;5.57;;;1.73;;
35839;SDS011;35514;50.504;30.500;2023-02-20T01:09:34;7.05;;;2.75;;
35839;SDS011;35514;50.504;30.500;2023-02-20T01:12:02;8.52;;;1.52;;
35839;SDS011;35514;50.504;30.500;2023-02-20T01:14:29;4.40;;;1.60;;
35839;SDS011;35514;50.504;30.500;2023-02-20T01:16:58;7.10;;;1.67;;
35839;SDS011;35514;50.504;30.500;2023-02-20T01:19:26;2.42;;;1.73;;
35839;SDS011;35514;50.504;30.500;2023-02-20T01:21:54;2.92;;;1.85;;
35839;SDS011;35514;50.504;30.500;2023-02-20T01:24:22;3.85;;;1.88;;
35839;SDS011;35514;50.504;30.500;2023-02-20T01:26:50;5.95;;;1.63;;
35839;SDS011;35514;50.504;30.500;2023-02-20T01:29:17;4.38;;;2.08;;
35839;SDS011;35514;50.504;30.500;2023-02-20T01:31:46;6.68;;;2.38;;
35839;SDS011;35514;50.504;30.500;2023-02-20T01:34:15;4.43;;;1.98;;
35839;SDS011;35514;50.504;30.500;2023-02-20T01:36:46;6.30;;;1.85;;
35839;SDS011;35514;50.504;30.500;2023-02-20T01:39:15;4.35;;;1.73;;
35839;SDS011;35514;50.504;30.500;2023-02-20T01:41:43;2.47;;;1.10;;
35839;SDS011;35514;50.504;30.500;2023-02-20T01:44:16;7.10;;;1.77;;
35839;SDS011;35514;50.504;30.500;2023-02-20T01:46:48;4.50;;;1.90;;
35839;SDS011;35514;50.504;30.500;2023-02-20T01:49:22;3.70;;;1.45;;
35839;SDS011;35514;50.504;30.500;2023-02-20T01:51:52;5.30;;;1.92;;
35839;SDS011;35514;50.504;30.500;2023-02-20T01:54:22;4.82;;;2.25;;
35839;SDS011;35514;50.504;30.500;2023-02-20T01:56:50;7.60;;;1.95;;
35839;SDS011;35514;50.504;30.500;2023-02-20T01:59:18;4.90;;;1.40;;
35839;SDS011;35514;50.504;30.500;2023-02-20T02:01:47;7.03;;;1.67;;
35839;SDS011;35514;50.504;30.500;2023-02-20T02:04:15;6.53;;;1.92;;
35839;SDS011;35514;50.504;30.500;2023-02-20T02:06:45;6.00;;;1.90;;
35839;SDS011;35514;50.504;30.500;2023-02-20T02:09:16;2.25;;;1.17;;
35839;SDS011;35514;50.504;30.500;2023-02-20T02:11:45;3.25;;;1.90;;
35839;SDS011;35514;50.504;30.500;2023-02-20T02:14:13;3.65;;;1.70;;
35839;SDS011;35514;50.504;30.500;2023-02-20T02:16:42;4.55;;;1.80;;
35839;SDS011;35514;50.504;30.500;2023-02-20T02:19:16;6.07;;;2.33;;
35839;SDS011;35514;50.504;30.500;2023-02-20T02:22:15;3.70;;;2.10;;
35839;SDS011;35514;50.504;30.500;2023-02-20T02:33:39;7.80;;;1.65;;
35839;SDS011;35514;50.504;30.500;2023-02-20T02:36:18;3.22;;;1.73;;
35839;SDS011;35514;50.504;30.500;2023-02-20T02:38:52;2.50;;;1.30;;
35839;SDS011;35514;50.504;30.500;2023-02-20T02:41:24;2.90;;;1.52;;
35839;SDS011;35514;50.504;30.500;2023-02-20T02:43:55;8.32;;;1.70;;
35839;SDS011;35514;50.504;30.500;2023-02-20T02:46:26;5.38;;;1.77;;
35839;SDS011;35514;50.504;30.500;2023-02-20T02:48:57;1.90;;;1.42;;
35839;SDS011;35514;50.504;30.500;2023-02-20T02:51:31;10.77;;;2.17;;
35839;SDS011;35514;50.504;30.500;2023-02-20T02:54:04;3.22;;;1.58;;
35839;SDS011;35514;50.504;30.500;2023-02-20T02:56:32;2.75;;;1.60;;
35839;SDS011;35514;50.504;30.500;2023-02-20T02:59:00;17.42;;;2.03;;
35839;SDS011;35514;50.504;30.500;2023-02-20T03:01:28;4.40;;;1.70;;
35839;SDS011;35514;50.504;30.500;2023-02-20T03:03:58;2.90;;;1.55;;
35839;SDS011;35514;50.504;30.500;2023-02-20T03:06:27;7.57;;;2.25;;
35839;SDS011;35514;50.504;30.500;2023-02-20T03:09:04;4.40;;;1.67;;
35839;SDS011;35514;50.504;30.500;2023-02-20T03:11:32;3.15;;;1.95;;
35839;SDS011;35514;50.504;30.500;2023-02-20T03:14:01;4.10;;;2.05;;
35839;SDS011;35514;50.504;30.500;2023-02-20T03:16:50;4.03;;;1.80;;
35839;SDS011;35514;50.504;30.500;2023-02-20T03:19:19;2.25;;;1.60;;
35839;SDS011;35514;50.504;30.500;2023-02-20T03:21:48;4.55;;;1.58;;
35839;SDS011;35514;50.504;30.500;2023-02-20T03:24:18;5.88;;;1.50;;
35839;SDS011;35514;50.504;30.500;2023-02-20T03:26:46;2.72;;;1.50;;
35839;SDS011;35514;50.504;30.500;2023-02-20T03:29:15;5.95;;;2.15;;
35839;SDS011;35514;50.504;30.500;2023-02-20T03:31:45;2.45;;;1.35;;
35839;SDS011;35514;50.504;30.500;2023-02-20T03:34:15;2.72;;;1.33;;
35839;SDS011;35514;50.504;30.500;2023-02-20T03:37:02;5.82;;;1.33;;
35839;SDS011;35514;50.504;30.500;2023-02-20T03:39:51;3.03;;;1.52;;
35839;SDS011;35514;50.504;30.500;2023-02-20T03:42:38;5.55;;;1.40;;
35839;SDS011;35514;50.504;30.500;2023-02-20T03:45:24;1.75;;;1.20;;
35839;SDS011;35514;50.504;30.500;2023-02-20T03:47:53;3.63;;;1.85;;
35839;SDS011;35514;50.504;30.500;2023-02-20T03:50:23;2.42;;;1.40;;
35839;SDS011;35514;50.504;30.500;2023-02-20T03:53:08;2.60;;;1.65;;
35839;SDS011;35514;50.504;30.500;2023-02-20T03:55:37;2.38;;;1.80;;
35839;SDS011;35514;50.504;30.500;2023-02-20T03:58:05;5.57;;;1.40;;
35839;SDS011;35514;50.504;30.500;2023-02-20T04:00:35;3.65;;;1.50;;
35839;SDS011;35514;50.504;30.500;2023-02-20T04:03:06;2.05;;;1.38;;
35839;SDS011;35514;50.504;30.500;2023-02-20T04:05:35;4.45;;;2.15;;
35839;SDS011;35514;50.504;30.500;2023-02-20T04:08:04;6.00;;;1.58;;
35839;SDS011;35514;50.504;30.500;2023-02-20T04:10:35;2.97;;;1.48;;
35839;SDS011;35514;50.504;30.500;2023-02-20T04:13:06;3.47;;;1.77;;
35839;SDS011;35514;50.504;30.500;2023-02-20T04:15:34;1.48;;;1.20;;
35839;SDS011;35514;50.504;30.500;2023-02-20T04:18:02;3.15;;;1.42;;
35839;SDS011;35514;50.504;30.500;2023-02-20T04:20:31;3.92;;;1.40;;
35839;SDS011;35514;50.504;30.500;2023-02-20T04:23:00;2.03;;;1.38;;
35839;SDS011;35514;50.504;30.500;2023-02-20T04:25:29;3.85;;;1.52;;
35839;SDS011;35514;50.504;30.500;2023-02-20T04:27:59;4.80;;;1.83;;
35839;SDS011;35514;50.504;30.500;2023-02-20T04:30:28;8.68;;;2.15;;
35839;SDS011;35514;50.504;30.500;2023-02-20T04:32:56;9.32;;;1.95;;
35839;SDS011;35514;50.504;30.500;2023-02-20T04:35:23;7.70;;;1.98;;
35839;SDS011;35514;50.504;30.500;2023-02-20T04:37:51;2.42;;;1.50;;
35839;SDS011;35514;50.504;30.500;2023-02-20T04:40:20;5.03;;;1.95;;
35839;SDS011;35514;50.504;30.500;2023-02-20T04:42:47;14.70;;;1.80;;
35839;SDS011;35514;50.504;30.500;2023-02-20T04:45:15;8.07;;;1.63;;
35839;SDS011;35514;50.504;30.500;2023-02-20T04:47:45;2.90;;;2.10;;
35839;SDS011;35514;50.504;30.500;2023-02-20T04:50:13;3.80;;;1.33;;
35839;SDS011;35514;50.504;30.500;2023-02-20T04:52:43;5.07;;;1.83;;
35839;SDS011;35514;50.504;30.500;2023-02-20T04:55:10;2.20;;;1.30;;
35839;SDS011;35514;50.504;30.500;2023-02-20T04:57:38;2.33;;;1.40;;
35839;SDS011;35514;50.504;30.500;2023-02-20T05:00:06;4.07;;;1.50;;
35839;SDS011;35514;50.504;30.500;2023-02-20T05:02:36;5.93;;;1.40;;
35839;SDS011;35514;50.504;30.500;2023-02-20T05:05:06;3.90;;;1.50;;
35839;SDS011;35514;50.504;30.500;2023-02-20T05:07:41;2.55;;;1.35;;
35839;SDS011;35514;50.504;30.500;2023-02-20T05:10:11;5.22;;;1.60;;
35839;SDS011;35514;50.504;30.500;2023-02-20T05:12:39;2.83;;;1.52;;
35839;SDS011;35514;50.504;30.500;2023-02-20T05:15:06;4.35;;;1.50;;
35839;SDS011;35514;50.504;30.500;2023-02-20T05:17:34;6.00;;;1.40;;
35839;SDS011;35514;50.504;30.500;2023-02-20T05:20:02;8.20;;;2.13;;
35839;SDS011;35514;50.504;30.500;2023-02-20T05:22:31;6.80;;;2.15;;
35839;SDS011;35514;50.504;30.500;2023-02-20T05:24:57;9.73;;;2.45;;
35839;SDS011;35514;50.504;30.500;2023-02-20T05:27:26;6.82;;;1.70;;
35839;SDS011;35514;50.504;30.500;2023-02-20T05:29:54;5.25;;;1.95;;
35839;SDS011;35514;50.504;30.500;2023-02-20T05:32:22;4.32;;;1.42;;
35839;SDS011;35514;50.504;30.500;2023-02-20T05:34:50;6.30;;;1.95;;
35839;SDS011;35514;50.504;30.500;2023-02-20T05:37:18;2.85;;;1.33;;
35839;SDS011;35514;50.504;30.500;2023-02-20T05:39:48;4.78;;;1.40;;
35839;SDS011;35514;50.504;30.500;2023-02-20T05:42:15;8.90;;;1.92;;
35839;SDS011;35514;50.504;30.500;2023-02-20T05:44:43;6.25;;;2.20;;
35839;SDS011;35514;50.504;30.500;2023-02-20T05:47:10;2.92;;;1.73;;
35839;SDS011;35514;50.504;30.500;2023-02-20T05:49:38;3.40;;;1.40;;
35839;SDS011;35514;50.504;30.500;2023-02-20T05:52:05;15.75;;;2.67;;
35839;SDS011;35514;50.504;30.500;2023-02-20T05:54:36;2.25;;;1.55;;
35839;SDS011;35514;50.504;30.500;2023-02-20T05:57:06;7.60;;;2.00;;
35839;SDS011;35514;50.504;30.500;2023-02-20T05:59:34;3.75;;;1.52;;
35839;SDS011;35514;50.504;30.500;2023-02-20T06:02:02;5.53;;;2.05;;
35839;SDS011;35514;50.504;30.500;2023-02-20T06:04:29;8.00;;;2.17;;
35839;SDS011;35514;50.504;30.500;2023-02-20T06:06:57;2.83;;;1.55;;
35839;SDS011;35514;50.504;30.500;2023-02-20T06:09:25;5.05;;;1.65;;
35839;SDS011;35514;50.504;30.500;2023-02-20T06:11:53;6.03;;;1.73;;
35839;SDS011;35514;50.504;30.500;2023-02-20T06:14:24;6.53;;;1.75;;
35839;SDS011;35514;50.504;30.500;2023-02-20T06:16:51;6.30;;;1.90;;
35839;SDS011;35514;50.504;30.500;2023-02-20T06:19:20;2.80;;;1.65;;
35839;SDS011;35514;50.504;30.500;2023-02-20T06:21:48;12.35;;;1.88;;
35839;SDS011;35514;50.504;30.500;2023-02-20T06:24:16;5.82;;;1.73;;
35839;SDS011;35514;50.504;30.500;2023-02-20T06:26:44;2.90;;;1.98;;
35839;SDS011;35514;50.504;30.500;2023-02-20T06:29:13;7.03;;;2.17;;
35839;SDS011;35514;50.504;30.500;2023-02-20T06:31:42;3.13;;;1.17;;
35839;SDS011;35514;50.504;30.500;2023-02-20T06:34:10;7.85;;;2.10;;
35839;SDS011;35514;50.504;30.500;2023-02-20T06:36:38;6.40;;;2.40;;
35839;SDS011;35514;50.504;30.500;2023-02-20T06:39:07;3.55;;;1.40;;
35839;SDS011;35514;50.504;30.500;2023-02-20T06:41:35;2.47;;;1.27;;
35839;SDS011;35514;50.504;30.500;2023-02-20T06:44:03;4.53;;;2.13;;
35839;SDS011;35514;50.504;30.500;2023-02-20T06:46:30;2.38;;;1.52;;
35839;SDS011;35514;50.504;30.500;2023-02-20T06:48:59;3.58;;;1.60;;
35839;SDS011;35514;50.504;30.500;2023-02-20T06:51:29;4.97;;;1.80;;
35839;SDS011;35514;50.504;30.500;2023-02-20T06:53:57;2.90;;;1.48;;
35839;SDS011;35514;50.504;30.500;2023-02-20T06:56:26;8.18;;;1.63;;
35839;SDS011;35514;50.504;30.500;2023-02-20T06:58:54;4.53;;;1.83;;
35839;SDS011;35514;50.504;30.500;2023-02-20T07:01:22;3.70;;;1.48;;
35839;SDS011;35514;50.504;30.500;2023-02-20T07:03:52;2.08;;;0.90;;
35839;SDS011;35514;50.504;30.500;2023-02-20T07:06:22;7.35;;;1.42;;
35839;SDS011;35514;50.504;30.500;2023-02-20T07:08:50;5.95;;;2.28;;
35839;SDS011;35514;50.504;30.500;2023-02-20T07:11:18;4.15;;;1.50;;
35839;SDS011;35514;50.504;30.500;2023-02-20T07:13:47;8.82;;;1.73;;
35839;SDS011;35514;50.504;30.500;2023-02-20T07:16:14;9.98;;;1.77;;
35839;SDS011;35514;50.504;30.500;2023-02-20T07:18:42;17.08;;;2.20;;
35839;SDS011;35514;50.504;30.500;2023-02-20T07:21:10;1.83;;;1.13;;
35839;SDS011;35514;50.504;30.500;2023-02-20T07:23:39;5.85;;;2.10;;
35839;SDS011;35514;50.504;30.500;2023-02-20T07:26:06;4.20;;;1.90;;
35839;SDS011;35514;50.504;30.500;2023-02-20T07:28:34;6.07;;;1.52;;
35839;SDS011;35514;50.504;30.500;2023-02-20T07:31:02;9.70;;;2.10;;
35839;SDS011;35514;50.504;30.500;2023-02-20T07:33:29;3.72;;;1.75;;
35839;SDS011;35514;50.504;30.500;2023-02-20T07:35:57;6.72;;;1.88;;
35839;SDS011;35514;50.504;30.500;2023-02-20T07:38:24;11.05;;;2.28;;
35839;SDS011;35514;50.504;30.500;2023-02-20T07:40:54;4.07;;;1.50;;
35839;SDS011;35514;50.504;30.500;2023-02-20T07:43:22;4.50;;;1.60;;
35839;SDS011;35514;50.504;30.500;2023-02-20T07:45:49;2.78;;;1.50;;
35839;SDS011;35514;50.504;30.500;2023-02-20T07:48:17;3.85;;;1.00;;
35839;SDS011;35514;50.504;30.500;2023-02-20T07:50:44;7.30;;;1.55;;
35839;SDS011;35514;50.504;30.500;2023-02-20T07:53:12;7.47;;;1.40;;
35839;SDS011;35514;50.504;30.500;2023-02-20T07:55:40;6.88;;;1.65;;
35839;SDS011;35514;50.504;30.500;2023-02-20T07:58:09;3.88;;;1.63;;
35839;SDS011;35514;50.504;30.500;2023-02-20T08:00:37;6.93;;;1.70;;
35839;SDS011;35514;50.504;30.500;2023-02-20T08:03:04;5.70;;;1.10;;
35839;SDS011;35514;50.504;30.500;2023-02-20T08:05:32;6.72;;;1.13;;
35839;SDS011;35514;50.504;30.500;2023-02-20T08:08:14;6.18;;;1.35;;
35839;SDS011;35514;50.504;30.500;2023-02-20T08:10:41;5.20;;;1.30;;
35839;SDS011;35514;50.504;30.500;2023-02-20T08:13:10;14.73;;;2.47;;
35839;SDS011;35514;50.504;30.500;2023-02-20T08:15:37;4.03;;;1.17;;
35839;SDS011;35514;50.504;30.500;2023-02-20T08:18:07;6.45;;;1.30;;
35839;SDS011;35514;50.504;30.500;2023-02-20T08:20:48;6.70;;;1.35;;
35839;SDS011;35514;50.504;30.500;2023-02-20T08:23:17;7.72;;;2.13;;
35839;SDS011;35514;50.504;30.500;2023-02-20T08:25:45;5.05;;;1.70;;
35839;SDS011;35514;50.504;30.500;2023-02-20T08:28:14;4.07;;;1.20;;
35839;SDS011;35514;50.504;30.500;2023-02-20T08:30:42;10.52;;;1.30;;
35839;SDS011;35514;50.504;30.500;2023-02-20T08:33:10;4.47;;;1.00;;
35839;SDS011;35514;50.504;30.500;2023-02-20T08:35:37;9.30;;;1.20;;
35839;SDS011;35514;50.504;30.500;2023-02-20T08:38:06;2.55;;;1.17;;
35839;SDS011;35514;50.504;30.500;2023-02-20T08:40:34;2.50;;;1.23;;
35839;SDS011;35514;50.504;30.500;2023-02-20T08:43:01;8.10;;;1.40;;
35839;SDS011;35514;50.504;30.500;2023-02-20T08:45:30;4.03;;;1.38;;
35839;SDS011;35514;50.504;30.500;2023-02-20T08:47:58;5.50;;;1.13;;
35839;SDS011;35514;50.504;30.500;2023-02-20T08:50:27;2.40;;;1.38;;
35839;SDS011;35514;50.504;30.500;2023-02-20T08:52:54;4.50;;;1.00;;
35839;SDS011;35514;50.504;30.500;2023-02-20T08:55:22;4.07;;;1.00;;
35839;SDS011;35514;50.504;30.500;2023-02-20T08:57:50;2.45;;;1.20;;
35839;SDS011;35514;50.504;30.500;2023-02-20T09:00:18;3.50;;;1.20;;
35839;SDS011;35514;50.504;30.500;2023-02-20T09:02:47;2.60;;;1.02;;
35839;SDS011;35514;50.504;30.500;2023-02-20T09:05:15;2.60;;;1.20;;
35839;SDS011;35514;50.504;30.500;2023-02-20T09:07:43;6.10;;;1.20;;
35839;SDS011;35514;50.504;30.500;2023-02-20T09:10:11;3.47;;;1.27;;
35839;SDS011;35514;50.504;30.500;2023-02-20T09:12:39;3.70;;;1.27;;
35839;SDS011;35514;50.504;30.500;2023-02-20T09:15:07;3.70;;;1.25;;
35839;SDS011;35514;50.504;30.500;2023-02-20T09:17:35;4.65;;;1.65;;
35839;SDS011;35514;50.504;30.500;2023-02-20T09:20:04;5.45;;;2.15;;
35839;SDS011;35514;50.504;30.500;2023-02-20T09:22:35;3.40;;;1.60;;
35839;SDS011;35514;50.504;30.500;2023-02-20T09:25:03;2.88;;;1.15;;
35839;SDS011;35514;50.504;30.500;2023-02-20T09:27:32;6.25;;;1.40;;
35839;SDS011;35514;50.504;30.500;2023-02-20T09:29:59;4.00;;;1.77;;
35839;SDS011;35514;50.504;30.500;2023-02-20T09:32:27;4.00;;;1.27;;
35839;SDS011;35514;50.504;30.500;2023-02-20T09:34:55;7.95;;;1.30;;
35839;SDS011;35514;50.504;30.500;2023-02-20T09:37:25;6.30;;;1.40;;
35839;SDS011;35514;50.504;30.500;2023-02-20T09:39:52;2.35;;;1.17;;
35839;SDS011;35514;50.504;30.500;2023-02-20T09:42:26;10.85;;;1.40;;
35839;SDS011;35514;50.504;30.500;2023-02-20T09:45:00;5.65;;;1.20;;
35839;SDS011;35514;50.504;30.500;2023-02-20T09:47:38;2.70;;;0.80;;
35839;SDS011;35514;50.504;30.500;2023-02-20T09:50:10;2.13;;;1.13;;
35839;SDS011;35514;50.504;30.500;2023-02-20T09:52:41;7.32;;;1.50;;
35839;SDS011;35514;50.504;30.500;2023-02-20T09:55:11;6.57;;;2.03;;
35839;SDS011;35514;50.504;30.500;2023-02-20T09:57:40;4.43;;;2.25;;
35839;SDS011;35514;50.504;30.500;2023-02-20T10:00:09;6.72;;;2.13;;
35839;SDS011;35514;50.504;30.500;2023-02-20T10:02:39;4.97;;;1.67;;
35839;SDS011;35514;50.504;30.500;2023-02-20T10:05:11;9.15;;;3.65;;
35839;SDS011;35514;50.504;30.500;2023-02-20T10:07:41;6.25;;;1.58;;
35839;SDS011;35514;50.504;30.500;2023-02-20T10:10:16;3.50;;;1.00;;
35839;SDS011;35514;50.504;30.500;2023-02-20T10:12:44;6.35;;;1.88;;
35839;SDS011;35514;50.504;30.500;2023-02-20T10:15:16;3.10;;;1.45;;
35839;SDS011;35514;50.504;30.500;2023-02-20T10:17:48;7.53;;;1.67;;
35839;SDS011;35514;50.504;30.500;2023-02-20T10:20:22;6.63;;;1.53;;
35839;SDS011;35514;50.504;30.500;2023-02-20T10:22:55;6.57;;;1.25;;
35839;SDS011;35514;50.504;30.500;2023-02-20T10:25:27;8.90;;;2.53;;
35839;SDS011;35514;50.504;30.500;2023-02-20T10:27:58;5.97;;;1.52;;
35839;SDS011;35514;50.504;30.500;2023-02-20T10:30:28;3.03;;;1.70;;
35839;SDS011;35514;50.504;30.500;2023-02-20T10:32:58;10.43;;;1.80;;
35839;SDS011;35514;50.504;30.500;2023-02-20T10:35:30;4.07;;;1.73;;
35839;SDS011;35514;50.504;30.500;2023-02-20T10:38:01;4.70;;;1.58;;
35839;SDS011;35514;50.504;30.500;2023-02-20T10:40:30;7.78;;;1.80;;
35839;SDS011;35514;50.504;30.500;2023-02-20T10:43:00;7.68;;;1.80;;
35839;SDS011;35514;50.504;30.500;2023-02-20T10:45:35;5.25;;;1.40;;
35839;SDS011;35514;50.504;30.500;2023-02-20T10:48:05;4.60;;;1.85;;
35839;SDS011;35514;50.504;30.500;2023-02-20T10:50:35;5.22;;;1.48;;
35839;SDS011;35514;50.504;30.500;2023-02-20T10:53:07;5.85;;;1.55;;
35839;SDS011;35514;50.504;30.500;2023-02-20T10:55:38;3.67;;;1.67;;
35839;SDS011;35514;50.504;30.500;2023-02-20T10:58:07;5.28;;;1.75;;
35839;SDS011;35514;50.504;30.500;2023-02-20T11:00:37;8.60;;;1.52;;
35839;SDS011;35514;50.504;30.500;2023-02-20T11:03:07;5.32;;;1.60;;
35839;SDS011;35514;50.504;30.500;2023-02-20T11:05:37;5.43;;;1.70;;
35839;SDS011;35514;50.504;30.500;2023-02-20T11:08:08;5.32;;;1.65;;
35839;SDS011;35514;50.504;30.500;2023-02-20T11:10:36;5.28;;;1.88;;
35839;SDS011;35514;50.504;30.500;2023-02-20T11:13:04;6.05;;;2.20;;
35839;SDS011;35514;50.504;30.500;2023-02-20T11:15:35;4.95;;;2.65;;
35839;SDS011;35514;50.504;30.500;2023-02-20T11:18:03;4.78;;;2.67;;
35839;SDS011;35514;50.504;30.500;2023-02-20T11:20:39;4.43;;;1.67;;
35839;SDS011;35514;50.504;30.500;2023-02-20T11:23:09;5.45;;;1.55;;
35839;SDS011;35514;50.504;30.500;2023-02-20T11:25:37;5.13;;;1.48;;
35839;SDS011;35514;50.504;30.500;2023-02-20T11:28:08;8.15;;;1.50;;
35839;SDS011;35514;50.504;30.500;2023-02-20T11:30:37;4.85;;;1.90;;
35839;SDS011;35514;50.504;30.500;2023-02-20T11:33:05;5.10;;;1.58;;
35839;SDS011;35514;50.504;30.500;2023-02-20T11:35:38;5.97;;;1.80;;
35839;SDS011;35514;50.504;30.500;2023-02-20T11:38:22;4.95;;;1.75;;
35839;SDS011;35514;50.504;30.500;2023-02-20T11:41:00;4.78;;;1.50;;
35839;SDS011;35514;50.504;30.500;2023-02-20T11:43:30;5.72;;;1.80;;
35839;SDS011;35514;50.504;30.500;2023-02-20T11:46:05;5.68;;;1.60;;
35839;SDS011;35514;50.504;30.500;2023-02-20T11:48:33;6.28;;;1.77;;
35839;SDS011;35514;50.504;30.500;2023-02-20T11:51:01;7.05;;;1.45;;
35839;SDS011;35514;50.504;30.500;2023-02-20T11:53:30;3.92;;;1.40;;
35839;SDS011;35514;50.504;30.500;2023-02-20T11:56:08;10.73;;;2.17;;
35839;SDS011;35514;50.504;30.500;2023-02-20T11:58:38;4.78;;;1.95;;
35839;SDS011;35514;50.504;30.500;2023-02-20T12:01:06;4.30;;;1.85;;
35839;SDS011;35514;50.504;30.500;2023-02-20T12:03:34;5.25;;;1.23;;
35839;SDS011;35514;50.504;30.500;2023-02-20T12:08:52;3.50;;;1.42;;
35839;SDS011;35514;50.504;30.500;2023-02-20T12:11:22;5.22;;;1.90;;
35839;SDS011;35514;50.504;30.500;2023-02-20T12:13:51;4.38;;;1.90;;
35839;SDS011;35514;50.504;30.500;2023-02-20T12:16:21;6.32;;;2.13;;
35839;SDS011;35514;50.504;30.500;2023-02-20T12:18:52;7.10;;;1.95;;
35839;SDS011;35514;50.504;30.500;2023-02-20T12:21:24;7.07;;;2.40;;
35839;SDS011;35514;50.504;30.500;2023-02-20T12:24:00;4.03;;;2.15;;
35839;SDS011;35514;50.504;30.500;2023-02-20T12:26:33;10.32;;;3.40;;
35839;SDS011;35514;50.504;30.500;2023-02-20T12:29:11;10.52;;;2.38;;
35839;SDS011;35514;50.504;30.500;2023-02-20T12:31:45;4.00;;;1.50;;
35839;SDS011;35514;50.504;30.500;2023-02-20T12:37:09;8.75;;;2.40;;
35839;SDS011;35514;50.504;30.500;2023-02-20T12:39:46;7.75;;;2.20;;
35839;SDS011;35514;50.504;30.500;2023-02-20T12:42:23;5.82;;;1.70;;
35839;SDS011;35514;50.504;30.500;2023-02-20T12:45:05;9.20;;;1.88;;
35839;SDS011;35514;50.504;30.500;2023-02-20T12:47:36;8.30;;;2.13;;
35839;SDS011;35514;50.504;30.500;2023-02-20T12:50:09;4.18;;;1.73;;
35839;SDS011;35514;50.504;30.500;2023-02-20T12:52:52;5.80;;;2.25;;
35839;SDS011;35514;50.504;30.500;2023-02-20T12:55:25;2.93;;;1.87;;
35839;SDS011;35514;50.504;30.500;2023-02-20T12:58:00;7.25;;;2.22;;
35839;SDS011;35514;50.504;30.500;2023-02-20T13:00:32;7.25;;;2.55;;
35839;SDS011;35514;50.504;30.500;2023-02-20T13:03:02;6.20;;;2.00;;
35839;SDS011;35514;50.504;30.500;2023-02-20T13:05:33;7.00;;;2.53;;
35839;SDS011;35514;50.504;30.500;2023-02-20T13:08:02;5.07;;;2.53;;
35839;SDS011;35514;50.504;30.500;2023-02-20T13:10:33;10.90;;;2.20;;
35839;SDS011;35514;50.504;30.500;2023-02-20T13:13:01;4.45;;;2.28;;
35839;SDS011;35514;50.504;30.500;2023-02-20T13:15:32;7.63;;;2.95;;
35839;SDS011;35514;50.504;30.500;2023-02-20T13:18:03;6.13;;;2.77;;
35839;SDS011;35514;50.504;30.500;2023-02-20T13:20:34;7.50;;;2.40;;
35839;SDS011;35514;50.504;30.500;2023-02-20T13:25:51;8.50;;;2.70;;
35839;SDS011;35514;50.504;30.500;2023-02-20T13:31:12;6.80;;;2.00;;
35839;SDS011;35514;50.504;30.500;2023-02-20T13:33:41;6.93;;;2.63;;
35839;SDS011;35514;50.504;30.500;2023-02-20T13:41:58;12.02;;;2.78;;
35839;SDS011;35514;50.504;30.500;2023-02-20T13:47:32;7.68;;;2.63;;
35839;SDS011;35514;50.504;30.500;2023-02-20T13:50:01;8.07;;;3.15;;
35839;SDS011;35514;50.504;30.500;2023-02-20T13:52:30;6.70;;;2.78;;
35839;SDS011;35514;50.504;30.500;2023-02-20T13:55:01;7.72;;;3.13;;
35839;SDS011;35514;50.504;30.500;2023-02-20T13:57:30;7.22;;;2.72;;
35839;SDS011;35514;50.504;30.500;2023-02-20T13:59:59;4.53;;;2.42;;
35839;SDS011;35514;50.504;30.500;2023-02-20T14:02:28;6.53;;;3.17;;
35839;SDS011;35514;50.504;30.500;2023-02-20T14:04:57;8.43;;;3.03;;
35839;SDS011;35514;50.504;30.500;2023-02-20T14:07:26;7.30;;;2.97;;
35839;SDS011;35514;50.504;30.500;2023-02-20T14:09:58;10.15;;;3.42;;
35839;SDS011;35514;50.504;30.500;2023-02-20T14:12:26;9.98;;;3.03;;
35839;SDS011;35514;50.504;30.500;2023-02-20T14:14:55;5.85;;;2.58;;
35839;SDS011;35514;50.504;30.500;2023-02-20T14:17:23;8.98;;;2.55;;
35839;SDS011;35514;50.504;30.500;2023-02-20T14:19:55;8.95;;;3.80;;
35839;SDS011;35514;50.504;30.500;2023-02-20T14:22:37;9.02;;;3.67;;
35839;SDS011;35514;50.504;30.500;2023-02-20T14:28:10;6.93;;;3.30;;
35839;SDS011;35514;50.504;30.500;2023-02-20T14:30:40;9.18;;;2.80;;
35839;SDS011;35514;50.504;30.500;2023-02-20T14:33:18;5.63;;;3.00;;
35839;SDS011;35514;50.504;30.500;2023-02-20T14:35:58;11.27;;;3.38;;
35839;SDS011;35514;50.504;30.500;2023-02-20T14:41:11;8.00;;;2.50;;
35839;SDS011;35514;50.504;30.500;2023-02-20T14:43:41;12.88;;;3.10;;
35839;SDS011;35514;50.504;30.500;2023-02-20T14:46:17;7.65;;;3.40;;
35839;SDS011;35514;50.504;30.500;2023-02-20T14:48:47;12.48;;;3.10;;
35839;SDS011;35514;50.504;30.500;2023-02-20T14:51:15;6.68;;;3.30;;
35839;SDS011;35514;50.504;30.500;2023-02-20T14:53:43;8.32;;;3.45;;
35839;SDS011;35514;50.504;30.500;2023-02-20T14:56:12;6.45;;;3.15;;
35839;SDS011;35514;50.504;30.500;2023-02-20T14:58:40;5.95;;;3.58;;
35839;SDS011;35514;50.504;30.500;2023-02-20T15:01:27;8.05;;;3.97;;
35839;SDS011;35514;50.504;30.500;2023-02-20T15:04:00;10.43;;;4.03;;
35839;SDS011;35514;50.504;30.500;2023-02-20T15:06:30;11.52;;;4.22;;
35839;SDS011;35514;50.504;30.500;2023-02-20T15:09:00;9.57;;;4.35;;
35839;SDS011;35514;50.504;30.500;2023-02-20T15:11:43;13.15;;;4.20;;
35839;SDS011;35514;50.504;30.500;2023-02-20T15:14:16;10.15;;;3.83;;
35839;SDS011;35514;50.504;30.500;2023-02-20T15:16:45;8.32;;;5.00;;
35839;SDS011;35514;50.504;30.500;2023-02-20T15:19:19;10.45;;;4.80;;
35839;SDS011;35514;50.504;30.500;2023-02-20T15:21:54;16.88;;;5.22;;
35839;SDS011;35514;50.504;30.500;2023-02-20T15:24:26;11.90;;;4.78;;